createdAt,value
2023-03-11T00:00:41.311Z,978.80
2023-03-11T00:01:41.336Z,978.78
2023-03-11T00:02:41.268Z,978.80
2023-03-11T00:03:41.286Z,978.79
2023-03-11T00:04:41.277Z,978.84
2023-03-11T00:05:41.321Z,978.91
2023-03-11T00:06:41.272Z,978.89
2023-03-11T00:07:41.230Z,978.88
2023-03-11T00:08:41.289Z,978.92
2023-03-11T00:09:41.259Z,979.05
2023-03-11T00:10:41.224Z,979.01
2023-03-11T00:11:41.212Z,978.99
2023-03-11T00:12:41.208Z,979.01
2023-03-11T00:13:41.231Z,979.06
2023-03-11T00:14:41.207Z,979.10
2023-03-11T00:15:41.198Z,979.13
2023-03-11T00:16:41.194Z,979.07
2023-03-11T00:17:41.158Z,979.07
2023-03-11T00:18:41.181Z,979.24
2023-03-11T00:19:41.207Z,979.17
2023-03-11T00:20:41.167Z,979.20
2023-03-11T00:21:41.180Z,979.26
2023-03-11T00:22:41.132Z,979.22
2023-03-11T00:23:41.159Z,979.25
2023-03-11T00:24:41.136Z,979.26
2023-03-11T00:25:41.149Z,979.36
2023-03-11T00:26:41.109Z,979.23
2023-03-11T00:27:41.106Z,979.28
2023-03-11T00:28:41.170Z,979.26
2023-03-11T00:29:41.102Z,979.36
2023-03-11T00:30:41.132Z,979.39
2023-03-11T00:31:41.096Z,979.46
2023-03-11T00:32:41.100Z,979.47
2023-03-11T00:33:41.137Z,979.44
2023-03-11T00:34:41.062Z,979.39
2023-03-11T00:35:41.202Z,979.43
2023-03-11T00:36:41.042Z,979.43
2023-03-11T00:37:41.032Z,979.51
2023-03-11T00:38:41.131Z,979.53
2023-03-11T00:39:41.015Z,979.53
2023-03-11T00:40:41.049Z,979.67
2023-03-11T00:41:41.041Z,979.62
2023-03-11T00:42:41.029Z,979.66
2023-03-11T00:43:41.008Z,979.67
2023-03-11T00:44:40.994Z,979.71
2023-03-11T00:45:40.998Z,979.67
2023-03-11T00:46:40.968Z,979.71
2023-03-11T00:47:40.979Z,979.75
2023-03-11T00:48:40.964Z,979.67
2023-03-11T00:49:40.947Z,979.73
2023-03-11T00:50:40.977Z,979.75
2023-03-11T00:51:40.987Z,979.80
2023-03-11T00:52:40.952Z,979.82
2023-03-11T00:53:40.955Z,979.84
2023-03-11T00:54:40.961Z,979.80
2023-03-11T00:55:40.948Z,979.83
2023-03-11T00:56:40.955Z,979.89
2023-03-11T00:57:40.902Z,979.88
2023-03-11T00:58:40.934Z,979.87
2023-03-11T00:59:40.872Z,979.91
2023-03-11T01:00:40.920Z,979.87
2023-03-11T01:01:40.922Z,979.93
2023-03-11T01:02:40.862Z,979.89
2023-03-11T01:03:40.860Z,979.92
2023-03-11T01:04:40.944Z,979.98
2023-03-11T01:05:40.908Z,979.97
2023-03-11T01:06:45.570Z,979.97
2023-03-11T01:07:42.845Z,979.97
2023-03-11T01:08:40.824Z,979.95
2023-03-11T01:09:40.843Z,980.01
2023-03-11T01:10:40.845Z,980.01
2023-03-11T01:11:40.845Z,980.02
2023-03-11T01:12:40.828Z,979.96
2023-03-11T01:13:40.833Z,980.03
2023-03-11T01:14:40.776Z,979.97
2023-03-11T01:15:40.849Z,980.02
2023-03-11T01:16:40.800Z,980.07
2023-03-11T07:19:14.305Z,984.65
2023-03-11T07:19:47.913Z,984.72
2023-03-11T07:20:47.941Z,984.73
2023-03-11T07:21:47.914Z,984.72
2023-03-11T07:22:47.934Z,984.73
2023-03-11T07:23:47.864Z,984.66
2023-03-11T07:24:47.894Z,984.66
2023-03-11T07:25:47.864Z,984.71
2023-03-11T07:26:47.870Z,984.78
2023-03-11T07:27:47.855Z,984.80
2023-03-11T07:28:47.835Z,984.83
2023-03-11T07:29:47.884Z,984.82
2023-03-11T07:30:47.857Z,984.86
2023-03-11T07:31:47.858Z,984.90
2023-03-11T07:32:47.921Z,984.90
2023-03-11T07:33:47.842Z,984.86
2023-03-11T07:34:47.796Z,984.96
2023-03-11T07:35:47.844Z,984.85
2023-03-11T07:36:47.795Z,984.91
2023-03-11T07:37:47.792Z,984.90
2023-03-11T07:38:47.799Z,984.97
2023-03-11T07:39:47.823Z,984.95
2023-03-11T07:40:47.769Z,984.99
2023-03-11T07:41:47.784Z,985.01
2023-03-11T07:42:47.794Z,985.07
2023-03-11T07:43:47.733Z,985.08
2023-03-11T07:44:47.729Z,985.08
2023-03-11T07:45:47.768Z,985.04
2023-03-11T07:46:47.742Z,985.13
2023-03-11T07:47:47.741Z,985.14
2023-03-11T07:48:47.715Z,985.12
2023-03-11T07:49:47.728Z,985.15
2023-03-11T07:50:47.693Z,985.18
2023-03-11T07:51:47.667Z,985.19
2023-03-11T07:52:47.695Z,985.21
2023-03-11T07:53:47.672Z,985.25
2023-03-11T07:54:47.713Z,985.26
2023-03-11T07:55:47.662Z,985.28
2023-03-11T07:56:47.648Z,985.30
2023-03-11T07:57:47.678Z,985.29
2023-03-11T07:58:48.622Z,985.36
2023-03-11T07:59:47.639Z,985.35
2023-03-11T08:00:47.620Z,985.33
2023-03-11T08:01:47.620Z,985.34
2023-03-11T08:02:47.668Z,985.37
2023-03-11T08:03:47.604Z,985.31
2023-03-11T08:04:47.617Z,985.33
2023-03-11T08:05:47.588Z,985.42
2023-03-11T08:06:47.622Z,985.38
2023-03-11T08:07:47.619Z,985.37
2023-03-11T08:08:47.592Z,985.41
2023-03-11T08:09:47.565Z,985.38
2023-03-11T08:10:47.588Z,985.41
2023-03-11T08:11:49.586Z,985.39
2023-03-11T08:12:47.561Z,985.35
2023-03-11T08:13:47.550Z,985.33
2023-03-11T08:14:47.531Z,985.37
2023-03-11T08:15:47.588Z,985.36
2023-03-11T08:16:47.553Z,985.35
2023-03-11T08:17:47.540Z,985.46
2023-03-11T08:18:47.501Z,985.40
2023-03-11T08:19:47.496Z,985.42
2023-03-11T08:20:47.504Z,985.45
2023-03-11T08:21:47.474Z,985.47
2023-03-11T08:22:57.748Z,985.45
2023-03-11T08:23:49.495Z,985.51
2023-03-11T08:24:47.450Z,985.53
2023-03-11T08:25:47.451Z,985.66
2023-03-11T08:26:47.447Z,985.59
2023-03-11T08:27:47.487Z,985.54
2023-03-11T08:28:47.444Z,985.65
2023-03-11T08:29:47.486Z,985.64
2023-03-11T08:30:47.442Z,985.63
2023-03-11T08:31:47.416Z,985.77
2023-03-11T08:32:47.462Z,985.69
2023-03-11T08:33:47.422Z,985.77
2023-03-11T08:34:47.415Z,985.80
2023-03-11T08:35:47.424Z,985.85
2023-03-11T08:36:47.383Z,985.86
2023-03-11T08:37:47.421Z,985.87
2023-03-11T08:38:47.443Z,985.89
2023-03-11T08:39:47.358Z,985.94
2023-03-11T08:40:47.383Z,985.88
2023-03-11T08:41:47.336Z,985.88
2023-03-11T08:42:47.364Z,985.93
2023-03-11T08:43:47.324Z,985.90
2023-03-11T08:44:47.342Z,985.86
2023-03-11T08:45:47.326Z,985.90
2023-03-11T08:46:47.360Z,985.82
2023-03-11T08:47:47.316Z,985.87
2023-03-11T08:48:47.329Z,985.93
2023-03-11T08:49:47.296Z,985.88
2023-03-11T08:50:54.016Z,985.94
2023-03-11T08:51:49.298Z,985.90
2023-03-11T08:52:47.314Z,985.93
2023-03-11T08:53:47.263Z,986.02
2023-03-11T08:54:47.281Z,985.84
2023-03-11T08:55:47.289Z,985.96
2023-03-11T08:56:47.283Z,986.00
2023-03-11T08:57:47.233Z,985.98
2023-03-11T08:58:47.281Z,985.99
2023-03-11T08:59:47.246Z,986.04
2023-03-11T09:00:47.243Z,986.05
2023-03-11T09:01:47.208Z,986.04
2023-03-11T09:02:47.288Z,986.05
2023-03-11T09:03:47.228Z,986.13
2023-03-11T09:04:47.216Z,986.11
2023-03-11T09:05:47.173Z,986.16
2023-03-11T09:06:48.169Z,986.10
2023-03-11T09:07:47.170Z,986.16
2023-03-11T09:08:47.193Z,986.19
2023-03-11T09:09:47.163Z,986.16
2023-03-11T09:10:47.149Z,986.25
2023-03-11T09:11:47.227Z,986.12
2023-03-11T09:12:47.145Z,986.16
2023-03-11T09:13:47.138Z,986.22
2023-03-11T09:14:47.125Z,986.27
2023-03-11T09:15:47.140Z,986.22
2023-03-11T09:16:47.121Z,986.20
2023-03-11T09:17:47.089Z,986.18
2023-03-11T09:18:47.144Z,986.17
2023-03-11T09:19:47.082Z,986.23
2023-03-11T09:20:47.095Z,986.29
2023-03-11T09:21:47.104Z,986.27
2023-03-11T09:22:47.126Z,986.27
2023-03-11T09:23:47.080Z,986.28
2023-03-11T09:24:47.056Z,986.34
2023-03-11T09:25:47.140Z,986.27
2023-03-11T09:26:47.044Z,986.33
2023-03-11T09:27:47.033Z,986.35
2023-03-11T09:28:47.051Z,986.38
2023-03-11T09:29:47.008Z,986.36
2023-03-11T09:30:47.030Z,986.35
2023-03-11T09:31:47.022Z,986.32
2023-03-11T09:32:47.029Z,986.38
2023-03-11T09:33:46.997Z,986.45
2023-03-11T09:34:46.972Z,986.46
2023-03-11T09:35:47.020Z,986.52
2023-03-11T09:36:46.978Z,986.57
2023-03-11T09:37:46.971Z,986.58
2023-03-11T09:38:46.975Z,986.56
2023-03-11T09:39:46.951Z,986.63
2023-03-11T09:40:47.227Z,986.58
2023-03-11T09:41:57.503Z,986.63
2023-03-11T09:42:48.942Z,986.53
2023-03-11T09:43:46.971Z,986.56
2023-03-11T09:44:46.920Z,986.50
2023-03-11T09:45:46.910Z,986.48
2023-03-11T09:46:46.964Z,986.49
2023-03-11T09:47:46.900Z,986.60
2023-03-11T09:48:46.912Z,986.51
2023-03-11T09:49:46.877Z,986.52
2023-03-11T09:50:46.861Z,986.50
2023-03-11T09:51:46.855Z,986.54
2023-03-11T09:52:46.892Z,986.53
2023-03-11T09:53:46.881Z,986.54
2023-03-11T09:54:46.968Z,986.60
2023-03-11T09:55:46.860Z,986.60
2023-03-11T09:56:46.862Z,986.62
2023-03-11T09:57:46.843Z,986.58
2023-03-11T09:58:46.820Z,986.63
2023-03-11T09:59:46.812Z,986.62
2023-03-11T10:00:46.820Z,986.68
2023-03-11T10:01:46.870Z,986.70
2023-03-11T10:02:46.921Z,986.69
2023-03-11T10:03:46.806Z,986.69
2023-03-11T10:04:46.770Z,986.71
2023-03-11T10:05:46.772Z,986.64
2023-03-11T10:06:46.792Z,986.64
2023-03-11T10:07:46.741Z,986.68
2023-03-11T10:08:46.807Z,986.64
2023-03-11T10:09:46.737Z,986.58
2023-03-11T10:10:46.753Z,986.63
2023-03-11T10:11:46.764Z,986.61
2023-03-11T10:12:46.726Z,986.65
2023-03-11T10:13:46.783Z,986.60
2023-03-11T10:14:46.702Z,986.65
2023-03-11T10:15:46.691Z,986.60
2023-03-11T10:16:46.741Z,986.66
2023-03-11T10:17:46.663Z,986.65
2023-03-11T10:18:46.686Z,986.70
2023-03-11T10:19:46.679Z,986.69
2023-03-11T10:20:46.684Z,986.68
2023-03-11T10:21:46.655Z,986.58
2023-03-11T10:22:46.659Z,986.70
2023-03-11T10:23:46.697Z,986.64
2023-03-11T10:24:46.631Z,986.68
2023-03-11T10:25:46.637Z,986.74
2023-03-11T10:26:46.611Z,986.74
2023-03-11T10:27:46.633Z,986.78
2023-03-11T10:28:46.638Z,986.81
2023-03-11T10:29:46.608Z,986.74
2023-03-11T10:30:46.584Z,986.75
2023-03-11T10:31:46.671Z,986.77
2023-03-11T10:32:46.648Z,986.74
2023-03-11T10:33:47.726Z,986.74
2023-03-11T10:34:47.564Z,986.81
2023-03-11T10:35:46.593Z,986.73
2023-03-11T10:36:46.549Z,986.79
2023-03-11T10:37:49.363Z,986.80
2023-03-11T10:38:47.550Z,986.73
2023-03-11T10:39:46.503Z,986.78
2023-03-11T10:40:46.508Z,986.77
2023-03-11T10:41:46.503Z,986.69
2023-03-11T10:42:46.488Z,986.71
2023-03-11T10:43:46.502Z,986.80
2023-03-11T10:44:46.478Z,986.84
2023-03-11T10:45:46.519Z,986.75
2023-03-11T10:46:46.492Z,986.75
2023-03-11T10:47:46.696Z,986.77
2023-03-11T10:48:46.460Z,986.83
2023-03-11T10:49:46.460Z,986.84
2023-03-11T10:50:46.444Z,986.83
2023-03-11T10:51:46.474Z,986.84
2023-03-11T10:52:46.430Z,986.82
2023-03-11T10:53:46.424Z,986.83
2023-03-11T10:54:46.469Z,986.80
2023-03-11T10:55:46.442Z,986.78
2023-03-11T10:56:46.395Z,986.75
2023-03-11T10:57:46.425Z,986.66
2023-03-11T10:58:46.429Z,986.69
2023-03-11T10:59:46.385Z,986.63
2023-03-11T11:00:46.484Z,986.74
2023-03-11T11:01:46.375Z,986.83
2023-03-11T11:02:46.402Z,986.84
2023-03-11T11:03:46.460Z,986.82
2023-03-11T11:04:46.374Z,986.82
2023-03-11T11:05:46.344Z,986.82
2023-03-11T11:06:46.343Z,986.69
2023-03-11T11:07:46.389Z,986.68
2023-03-11T11:08:46.339Z,986.69
2023-03-11T11:09:46.340Z,986.70
2023-03-11T11:10:46.314Z,986.77
2023-03-11T11:11:46.300Z,986.71
2023-03-11T11:12:46.296Z,986.76
2023-03-11T11:13:46.334Z,986.83
2023-03-11T11:14:46.287Z,986.88
2023-03-11T11:15:46.302Z,986.94
2023-03-11T11:16:46.408Z,986.87
2023-03-11T11:17:46.272Z,986.96
2023-03-11T11:18:48.209Z,986.92
2023-03-11T11:19:46.271Z,986.97
2023-03-11T11:20:46.232Z,986.97
2023-03-11T11:21:46.246Z,987.01
2023-03-11T11:22:46.237Z,986.97
2023-03-11T11:23:46.230Z,986.97
2023-03-11T11:24:46.216Z,987.02
2023-03-11T11:25:46.199Z,986.90
2023-03-11T11:26:46.212Z,986.90
2023-03-11T11:27:46.207Z,986.88
2023-03-11T11:28:46.210Z,986.90
2023-03-11T11:29:46.183Z,986.91
2023-03-11T11:30:46.197Z,986.93
2023-03-11T11:31:46.159Z,986.89
2023-03-11T11:32:47.285Z,986.94
2023-03-11T11:33:46.182Z,986.90
2023-03-11T11:34:46.159Z,986.87
2023-03-11T11:35:46.156Z,986.88
2023-03-11T11:36:46.160Z,986.87
2023-03-11T11:37:46.144Z,986.90
2023-03-11T11:38:46.174Z,986.92
2023-03-11T11:39:46.105Z,986.95
2023-03-11T11:40:46.118Z,986.95
2023-03-11T11:41:46.115Z,986.96
2023-03-11T11:44:38.706Z,986.91
2023-03-11T11:46:32.311Z,986.88
2023-03-11T11:48:25.760Z,986.94
2023-03-11T11:50:19.240Z,986.99
2023-03-11T11:52:12.701Z,986.86
2023-03-11T11:54:06.197Z,986.84
2023-03-11T11:55:59.641Z,986.86
2023-03-11T11:57:53.111Z,986.95
2023-03-11T11:59:46.563Z,986.88
2023-03-11T12:01:40.159Z,986.92
2023-03-11T12:15:54.226Z,986.89
2023-03-11T12:16:28.322Z,986.93
2023-03-11T12:17:28.280Z,986.93
2023-03-11T12:18:28.261Z,986.91
2023-03-11T12:19:28.275Z,986.92
2023-03-11T12:20:28.282Z,986.90
2023-03-11T12:21:28.256Z,986.89
2023-03-11T12:22:28.238Z,986.88
2023-03-11T12:23:28.246Z,986.92
2023-03-11T12:24:28.219Z,986.88
2023-03-11T12:25:28.220Z,986.90
2023-03-11T12:26:28.223Z,986.94
2023-03-11T12:27:28.197Z,986.94
2023-03-11T12:28:28.255Z,986.96
2023-03-11T12:29:28.204Z,986.86
2023-03-11T12:30:28.239Z,986.90
2023-03-11T12:31:28.216Z,986.93
2023-03-11T12:32:28.228Z,986.87
2023-03-11T12:33:28.161Z,986.88
2023-03-11T12:34:28.256Z,986.88
2023-03-11T12:35:28.141Z,986.93
2023-03-11T12:36:29.160Z,986.89
2023-03-11T12:37:28.211Z,986.80
2023-03-11T12:38:28.138Z,986.85
2023-03-11T12:39:28.136Z,986.79
2023-03-11T12:40:28.143Z,986.71
2023-03-11T12:41:28.125Z,986.74
2023-03-11T12:42:28.102Z,986.83
2023-03-11T12:43:28.110Z,986.86
2023-03-11T12:44:28.138Z,986.86
2023-03-11T12:45:28.123Z,986.90
2023-03-11T12:46:28.190Z,986.92
2023-03-11T12:47:28.103Z,986.92
2023-03-11T12:48:28.113Z,986.91
2023-03-11T12:49:28.079Z,986.97
2023-03-11T12:50:28.059Z,986.90
2023-03-11T12:51:28.048Z,986.88
2023-03-11T12:52:28.033Z,986.88
2023-03-11T12:53:28.164Z,986.92
2023-03-11T12:54:28.044Z,986.82
2023-03-11T12:55:28.018Z,986.88
2023-03-11T12:56:28.076Z,986.84
2023-03-11T12:57:27.997Z,986.82
2023-03-11T12:58:28.010Z,986.86
2023-03-11T12:59:28.031Z,986.81
2023-03-11T13:00:28.010Z,986.84
2023-03-11T13:01:27.994Z,986.87
2023-03-11T13:02:28.003Z,986.89
2023-03-11T13:03:27.985Z,986.85
2023-03-11T13:04:27.999Z,986.90
2023-03-11T13:05:27.958Z,986.89
2023-03-11T13:06:27.963Z,986.93
2023-03-11T13:07:27.950Z,986.90
2023-03-11T13:08:27.951Z,986.88
2023-03-11T13:09:29.825Z,986.86
2023-03-11T13:10:27.918Z,986.88
2023-03-11T13:11:27.903Z,986.88
2023-03-11T13:12:27.914Z,986.86
2023-03-11T13:13:27.885Z,986.84
2023-03-11T13:14:27.933Z,986.92
2023-03-11T13:15:27.894Z,986.88
2023-03-11T13:16:27.907Z,986.98
2023-03-11T13:17:28.871Z,986.93
2023-03-11T13:18:27.873Z,986.94
2023-03-11T13:19:27.884Z,986.93
2023-03-11T13:20:27.856Z,986.99
2023-03-11T13:21:27.918Z,987.00
2023-03-11T13:22:27.848Z,987.02
2023-03-11T13:23:27.845Z,987.05
2023-03-11T13:24:27.837Z,987.00
2023-03-11T13:25:27.836Z,987.02
2023-03-11T13:26:27.818Z,987.06
2023-03-11T13:27:27.819Z,987.08
2023-03-11T13:28:27.792Z,987.02
2023-03-11T13:29:27.804Z,986.99
2023-03-11T13:30:27.816Z,987.00
2023-03-11T13:31:27.868Z,986.94
2023-03-11T13:32:27.786Z,986.96
2023-03-11T13:33:27.753Z,986.92
2023-03-11T13:34:27.944Z,986.96
2023-03-11T13:35:27.731Z,986.98
2023-03-11T13:36:27.726Z,986.98
2023-03-11T13:37:27.758Z,987.06
2023-03-11T13:38:27.732Z,987.05
2023-03-11T13:39:27.734Z,987.09
2023-03-11T13:40:27.814Z,987.09
2023-03-11T13:41:28.161Z,987.18
2023-03-11T13:42:27.698Z,987.13
2023-03-11T13:43:27.744Z,987.09
2023-03-11T13:44:27.721Z,987.16
2023-03-11T13:45:27.777Z,987.18
2023-03-11T13:46:27.679Z,987.16
2023-03-11T13:47:27.707Z,987.25
2023-03-11T13:48:27.653Z,987.24
2023-03-11T13:49:27.701Z,987.22
2023-03-11T13:50:27.650Z,987.23
2023-03-11T13:51:27.653Z,987.21
2023-03-11T13:52:27.633Z,987.32
2023-03-11T13:53:27.634Z,987.32
2023-03-11T13:54:27.611Z,987.34
2023-03-11T13:55:27.663Z,987.36
2023-03-11T13:56:27.659Z,987.43
2023-03-11T13:57:27.605Z,987.37
2023-03-11T13:58:27.662Z,987.42
2023-03-11T13:59:27.576Z,987.40
2023-03-11T14:00:27.605Z,987.41
2023-03-11T14:01:27.639Z,987.44
2023-03-11T14:02:27.657Z,987.43
2023-03-11T14:03:27.557Z,987.38
2023-03-11T14:04:27.699Z,987.45
2023-03-11T14:05:27.639Z,987.39
2023-03-11T14:06:27.543Z,987.45
2023-03-11T14:07:27.640Z,987.44
2023-03-11T14:08:27.573Z,987.47
2023-03-11T14:09:27.550Z,987.50
2023-03-11T14:10:27.542Z,987.43
2023-03-11T14:11:27.496Z,987.44
2023-03-11T14:12:27.501Z,987.40
2023-03-11T14:13:27.511Z,987.46
2023-03-11T14:14:27.505Z,987.46
2023-03-11T14:15:27.550Z,987.55
2023-03-11T14:16:27.476Z,987.57
2023-03-11T14:17:27.446Z,987.58
2023-03-11T14:18:27.440Z,987.54
2023-03-11T14:19:27.449Z,987.56
2023-03-11T14:20:27.450Z,987.59
2023-03-11T14:21:27.460Z,987.67
2023-03-11T14:22:27.473Z,987.65
2023-03-11T14:23:28.370Z,987.56
2023-03-11T14:24:27.672Z,987.55
2023-03-11T14:25:27.488Z,987.49
2023-03-11T14:26:27.448Z,987.55
2023-03-11T14:27:27.448Z,987.57
2023-03-11T14:28:27.482Z,987.62
2023-03-11T14:29:27.433Z,987.59
2023-03-11T14:30:28.029Z,987.55
2023-03-11T14:31:27.411Z,987.57
2023-03-11T14:32:27.457Z,987.60
2023-03-11T14:33:27.366Z,987.59
2023-03-11T14:34:27.395Z,987.56
2023-03-11T14:35:28.047Z,987.54
2023-03-11T14:36:27.350Z,987.55
2023-03-11T14:37:27.341Z,987.57
2023-03-11T14:38:27.364Z,987.52
2023-03-11T14:39:27.364Z,987.45
2023-03-11T14:40:27.359Z,987.51
2023-03-11T14:41:27.343Z,987.47
2023-03-11T14:42:27.434Z,987.50
2023-03-11T14:43:27.319Z,987.51
2023-03-11T14:44:27.529Z,987.53
2023-03-11T14:45:27.377Z,987.54
2023-03-11T14:46:27.309Z,987.49
2023-03-11T14:47:27.358Z,987.42
2023-03-11T14:48:27.266Z,987.43
2023-03-11T14:49:27.246Z,987.51
